Terminal Aerodrome Forecast
Issued by NWS

Home | Current Version | Previous Version | Text Only | Print | Product List | Glossary On
Versions: 1 2 3 4 5 6 7 8 9 10 11 12 13 14 15 16 17 18 19
000
FTUS43 KSGF 300520
TAFBBG
TAF
KBBG 300520Z 3006/0106 13010G17KT 6SM -RA BR OVC007 WS020/17045KT
     FM300800 13013G21KT 6SM BR VCSH OVC004
      TEMPO 3008/3011 SCT004 BKN070
     FM301500 21009KT P6SM BKN015 OVC040
     FM301800 24009KT P6SM SCT040
     FM010000 VRB03KT P6SM SKC=

USA.gov is the U.S. government's official web portal to all federal, state and local government web resources and services.